Doss, TX (78618)

8:58 AM CST on December 18, 2014 (GMT -0600)
Rancho Milagro | Change Station
CLOSE
Current Station
Personal Weather Station
Location: Harper, TX
Elevation: 2195 ft
Nearby Weather Stations

Elev 2195 ft 30.33 °N, 99.24 °W | Updated 3 minutes ago

Fog
Fog
55.8 °F
Feels Like 55.8 °F
N
2.2
Wind Variable Wind from SW

Today
High -- | Low -- °F
--% Chance of Precip.
Yesterday
High -- | Low -- °F
Precip. -- in
7:27 AM 5:38 PM
Waning Crescent, 14% visible
Pressure 30.12 in
Visibility 0.2 miles
Clouds Overcast 200 ft
Dew Point 55 °F
Humidity 97%
Rainfall 0.00 in
Snow Depth Not available.
UV 0 out of 12
Pollen 8.50 out of 12
Air Quality Not available.
Flu Activity Not available.
METAR KT82 181435Z AUTO 00000KT 1/4SM FG OVC002 12/12 A3012 RMK AO2 T01170115

More Conditions Fewer Conditions

Pressure 30.12 in
Visibility 0.2 miles
Clouds Overcast 200 ft
Dew Point 55 °F
Humidity 97%
Rainfall 0.00 in
Snow Depth Not available.
UV 0 out of 12
Pollen 8.50 out of 12
Air Quality Not available.
Flu Activity Not available.
METAR KT82 181435Z AUTO 00000KT 1/4SM FG OVC002 12/12 A3012 RMK AO2 T01170115

More Conditions Fewer Conditions

Nowcast | as of 6:59 am CST on December 18, 2014

Through 9 am...patchy light drizzle will continue across south central Texas with little or no measurable rainfall expected. Areas of fog will continue with visibilities generally 1/2 to 2 miles. Some locations will see visibilities of 1/4 mile or less. Motorists should exercise caution and slow down in areas of fog as visibilities may drop rapidly.

×

10-Day Weather Forecast

Almanac

Astronomy

Dec. 18, 2014 Rise Set
Actual Time
Civil Twilight
Nautical Twilight
Astronomical Twilight
Moon
Length of Visible Light
Length of Day
Tomorrow will be .
, % of the Moon is Illuminated

Today's Extremes

State Highs State Lows

Community

WunderPhotos

Upload Photos

1,778,929 photos uploaded!

WunderBlogs® & News

Nearby

Air Quality

  Air Quality AQ Index Pollutant
Not available.

Snow Depth

Station Depth Elevation

Earthquake Activity

City Distance Mag. Time & Date
Minimum magnitude displayed is 2.5.

Coastal Water Temperatures

Place Temperature

Nearby Weather Stations